createdAt,value
2023-04-03T00:01:24.554Z,13.50
2023-04-03T00:03:52.864Z,13.50
2023-04-03T00:06:22.516Z,13.50
2023-04-03T00:08:51.400Z,13.40
2023-04-03T00:11:19.869Z,13.40
2023-04-03T00:13:47.993Z,13.40
2023-04-03T00:16:16.200Z,13.40
2023-04-03T00:18:44.790Z,13.40
2023-04-03T00:21:15.504Z,13.30
2023-04-03T00:23:45.144Z,13.30
2023-04-03T00:26:13.620Z,13.30
2023-04-03T00:28:41.781Z,13.30
2023-04-03T00:31:10.040Z,13.30
2023-04-03T00:33:38.252Z,13.30
2023-04-03T00:36:11.400Z,13.30
2023-04-03T00:38:40.010Z,13.30
2023-04-03T00:41:09.975Z,13.20
2023-04-03T00:43:38.425Z,13.20
2023-04-03T00:46:06.662Z,13.20
2023-04-03T00:48:38.136Z,13.20
2023-04-03T00:51:09.197Z,13.20
2023-04-03T00:53:40.795Z,13.20
2023-04-03T00:56:12.875Z,13.20
2023-04-03T00:58:46.196Z,13.20
2023-04-03T01:01:18.114Z,13.20
2023-04-03T01:03:46.394Z,13.20
2023-04-03T01:06:17.992Z,13.20
2023-04-03T01:08:47.912Z,13.10
2023-04-03T01:11:17.606Z,13.10
2023-04-03T01:13:46.054Z,13.10
2023-04-03T01:16:14.471Z,13.10
2023-04-03T01:18:44.106Z,13.10
2023-04-03T01:21:47.970Z,13.00
2023-04-03T01:24:33.975Z,13.10
2023-04-03T01:27:06.704Z,12.90
2023-04-03T01:29:35.689Z,12.90
2023-04-03T01:32:05.840Z,12.80
2023-04-03T01:34:33.950Z,12.70
2023-04-03T01:37:02.183Z,12.70
2023-04-03T01:39:30.440Z,12.70
2023-04-03T01:42:00.257Z,12.70
2023-04-03T01:44:28.477Z,12.70
2023-04-03T01:46:56.610Z,12.70
2023-04-03T01:49:26.195Z,12.70
2023-04-03T01:51:54.306Z,12.80
2023-04-03T01:54:22.531Z,12.80
2023-04-03T01:56:50.754Z,12.80
2023-04-03T01:59:20.246Z,12.70
2023-04-03T02:01:48.490Z,12.70
2023-04-03T02:04:16.655Z,12.70
2023-04-03T02:06:46.310Z,12.70
2023-04-03T02:09:14.535Z,12.70
2023-04-03T02:11:42.693Z,12.70
2023-04-03T02:14:10.871Z,12.70
2023-04-03T02:16:39.104Z,12.70
2023-04-03T02:19:08.297Z,12.70
2023-04-03T02:21:36.471Z,12.70
2023-04-03T02:24:06.422Z,12.70
2023-04-03T02:26:34.623Z,12.70
2023-04-03T02:29:02.790Z,12.60
2023-04-03T02:31:31.096Z,12.60
2023-04-03T02:33:59.306Z,12.60
2023-04-03T02:36:27.516Z,12.50
2023-04-03T02:38:55.656Z,12.40
2023-04-03T02:41:26.546Z,12.40
2023-04-03T02:43:54.715Z,12.50
2023-04-03T02:46:22.854Z,12.50
2023-04-03T02:48:50.989Z,12.50
2023-04-03T02:51:19.104Z,12.50
2023-04-03T02:53:47.274Z,12.50
2023-04-03T02:56:15.419Z,12.50
2023-04-03T02:58:45.060Z,12.50
2023-04-03T03:01:13.774Z,12.50
2023-04-03T03:03:42.129Z,12.50
2023-04-03T03:06:12.187Z,12.50
2023-04-03T03:08:40.959Z,12.50
2023-04-03T03:11:09.829Z,12.50
2023-04-03T03:13:38.033Z,12.30
2023-04-03T03:16:08.771Z,12.30
2023-04-03T03:18:37.536Z,12.30
2023-04-03T03:21:06.152Z,12.30
2023-04-03T03:23:34.658Z,12.20
2023-04-03T03:26:05.478Z,12.30
2023-04-03T03:28:34.292Z,12.30
2023-04-03T03:31:03.097Z,12.30
2023-04-03T03:33:33.546Z,12.30
2023-04-03T03:36:01.959Z,12.30
2023-04-03T03:38:30.459Z,12.30
2023-04-03T03:40:58.586Z,12.30
2023-04-03T03:43:26.743Z,12.30
2023-04-03T03:45:56.030Z,12.30
2023-04-03T03:48:24.780Z,12.30
2023-04-03T03:50:54.287Z,12.30
2023-04-03T03:53:22.436Z,12.30
2023-04-03T03:55:50.749Z,12.30
2023-04-03T03:58:18.899Z,12.20
2023-04-03T04:00:47.307Z,12.20
2023-04-03T04:03:15.535Z,12.20
2023-04-03T04:05:43.775Z,12.20
2023-04-03T04:08:13.303Z,12.20
2023-04-03T04:10:41.534Z,12.20
2023-04-03T04:13:09.685Z,12.10
2023-04-03T04:15:38.080Z,12.10
2023-04-03T04:18:06.550Z,12.10
2023-04-03T04:20:34.827Z,12.10
2023-04-03T04:23:02.962Z,12.10
2023-04-03T04:25:32.522Z,12.10
2023-04-03T04:28:00.732Z,12.10
2023-04-03T04:30:28.948Z,12.00
2023-04-03T04:32:57.209Z,12.10
2023-04-03T04:35:25.531Z,12.00
2023-04-03T04:37:53.744Z,12.00
2023-04-03T04:40:21.932Z,12.10
2023-04-03T04:42:51.442Z,12.00
2023-04-03T04:45:20.115Z,12.00
2023-04-03T04:47:48.439Z,12.00
2023-04-03T04:50:17.338Z,12.00
2023-04-03T04:52:45.565Z,12.00
2023-04-03T04:55:13.653Z,12.00
2023-04-03T04:57:41.833Z,12.00
2023-04-03T05:00:13.102Z,12.00
2023-04-03T05:02:41.325Z,12.00
2023-04-03T05:05:10.651Z,11.90
2023-04-03T05:07:38.803Z,11.90
2023-04-03T05:10:08.250Z,11.90
2023-04-03T05:12:36.390Z,11.90
2023-04-03T05:15:04.778Z,11.90
2023-04-03T05:17:34.346Z,11.90
2023-04-03T05:20:02.504Z,11.80
2023-04-03T05:22:31.079Z,11.80
2023-04-03T05:24:59.229Z,11.90
2023-04-03T05:27:29.169Z,11.90
2023-04-03T05:29:57.824Z,11.90
2023-04-03T05:32:27.885Z,12.00
2023-04-03T05:34:58.392Z,12.00
2023-04-03T05:37:28.209Z,12.00
2023-04-03T05:39:56.566Z,12.00
2023-04-03T05:42:24.674Z,12.10
2023-04-03T05:44:52.873Z,12.10
2023-04-03T05:47:21.640Z,12.10
2023-04-03T05:49:50.205Z,12.10
2023-04-03T05:52:24.900Z,12.20
2023-04-03T05:54:53.117Z,12.20
2023-04-03T05:57:21.440Z,12.30
2023-04-03T05:59:49.668Z,12.30
2023-04-03T06:02:20.466Z,12.30
2023-04-03T06:04:49.137Z,12.40
2023-04-03T06:07:20.485Z,12.50
2023-04-03T06:09:50.569Z,12.50
2023-04-03T06:12:18.929Z,12.50
2023-04-03T06:14:47.666Z,12.60
2023-04-03T06:17:16.365Z,12.60
2023-04-03T06:19:44.667Z,12.60
2023-04-03T06:22:13.722Z,12.60
2023-04-03T06:24:41.859Z,12.70
2023-04-03T06:27:13.344Z,12.70
2023-04-03T06:29:41.500Z,12.80
2023-04-03T06:32:09.603Z,12.80
2023-04-03T06:34:38.012Z,12.90
2023-04-03T06:37:06.195Z,12.90
2023-04-03T06:39:34.693Z,12.90
2023-04-03T06:42:02.837Z,12.90
2023-04-03T06:44:34.897Z,12.90
2023-04-03T06:47:03.328Z,13.00
2023-04-03T06:49:31.740Z,13.00
2023-04-03T06:52:01.709Z,12.90
2023-04-03T06:54:30.924Z,12.90
2023-04-03T06:56:59.195Z,12.90
2023-04-03T06:59:27.371Z,12.90
2023-04-03T07:01:57.051Z,12.90
2023-04-03T07:04:25.303Z,12.90
2023-04-03T07:06:53.502Z,13.00
2023-04-03T07:09:22.610Z,13.00
2023-04-03T07:11:51.095Z,13.00
2023-04-03T07:14:19.356Z,13.10
2023-04-03T07:16:47.520Z,13.10
2023-04-03T07:19:17.395Z,13.10
2023-04-03T07:21:45.662Z,13.10
2023-04-03T07:24:16.241Z,13.20
2023-04-03T07:26:46.196Z,13.20
2023-04-03T07:29:15.096Z,13.20
2023-04-03T07:31:43.579Z,13.30
2023-04-03T07:34:11.814Z,13.30
2023-04-03T07:36:41.809Z,13.30
2023-04-03T07:39:10.037Z,13.30
2023-04-03T07:41:38.136Z,13.40
2023-04-03T07:44:06.789Z,13.40
2023-04-03T07:46:34.924Z,13.30
2023-04-03T07:49:03.219Z,13.30
2023-04-03T07:51:31.864Z,13.30
2023-04-03T07:54:01.350Z,13.20
2023-04-03T07:56:29.501Z,13.20
2023-04-03T07:58:57.669Z,13.30
2023-04-03T08:01:25.872Z,13.30
2023-04-03T08:03:54.075Z,13.40
2023-04-03T08:06:32.904Z,13.30
2023-04-03T08:09:07.407Z,13.30
2023-04-03T08:11:37.463Z,13.30
2023-04-03T08:14:05.563Z,13.40
2023-04-03T08:16:33.854Z,13.30
2023-04-03T08:19:02.724Z,13.30
2023-04-03T08:21:31.061Z,13.30
2023-04-03T08:23:59.378Z,13.30
2023-04-03T08:26:29.065Z,13.30
2023-04-03T08:28:57.212Z,13.40
2023-04-03T08:31:25.760Z,13.40
2023-04-03T08:33:54.033Z,13.40
2023-04-03T08:36:24.014Z,13.50
2023-04-03T08:38:53.335Z,13.50
2023-04-03T08:41:31.628Z,13.60
2023-04-03T08:44:17.338Z,13.60
2023-04-03T08:47:13.573Z,13.60
2023-04-03T08:49:48.326Z,13.60
2023-04-03T08:52:19.786Z,13.60
2023-04-03T08:54:53.059Z,13.60
2023-04-03T08:57:30.264Z,13.60
2023-04-03T09:00:03.637Z,13.60
2023-04-03T09:02:36.835Z,13.60
2023-04-03T09:05:14.506Z,13.60
2023-04-03T09:07:49.349Z,13.60
2023-04-03T09:10:22.938Z,13.70
2023-04-03T09:12:59.482Z,13.70
2023-04-03T09:15:38.422Z,13.70
2023-04-03T09:18:14.901Z,13.70
2023-04-03T09:20:48.515Z,13.70
2023-04-03T09:23:23.601Z,13.70
2023-04-03T09:25:55.440Z,13.80
2023-04-03T09:28:23.689Z,13.90
2023-04-03T09:30:53.206Z,13.90
2023-04-03T09:33:23.605Z,13.90
2023-04-03T09:35:52.612Z,13.90
2023-04-03T09:38:23.247Z,14.00
2023-04-03T09:40:53.804Z,13.90
2023-04-03T09:43:28.397Z,13.90
2023-04-03T09:45:58.657Z,14.00
2023-04-03T09:48:29.266Z,13.90
2023-04-03T09:51:04.093Z,14.00
2023-04-03T09:53:36.528Z,14.10
2023-04-03T09:56:07.773Z,14.20
2023-04-03T09:58:49.689Z,14.10
2023-04-03T10:01:30.087Z,14.20
2023-04-03T10:04:10.861Z,14.20
2023-04-03T10:06:44.491Z,14.20
2023-04-03T10:09:22.237Z,14.30
2023-04-03T10:12:02.357Z,14.30
2023-04-03T10:14:31.074Z,14.40
2023-04-03T10:17:08.132Z,14.40
2023-04-03T10:19:41.250Z,14.40
2023-04-03T10:22:20.788Z,14.50
2023-04-03T10:25:04.016Z,14.50
2023-04-03T10:27:42.908Z,14.50
2023-04-03T10:30:29.982Z,14.60
2023-04-03T10:33:12.457Z,14.70
2023-04-03T10:35:52.071Z,14.70
2023-04-03T10:38:31.023Z,14.70
2023-04-03T10:41:07.735Z,14.80
2023-04-03T10:43:41.168Z,14.80
2023-04-03T10:46:17.131Z,14.80
2023-04-03T10:49:04.444Z,14.90
2023-04-03T10:51:40.244Z,14.90
2023-04-03T10:54:13.926Z,15.00
2023-04-03T10:56:45.005Z,15.00
2023-04-03T10:59:24.500Z,15.10
2023-04-03T11:01:57.526Z,15.10
2023-04-03T11:04:30.492Z,15.00
2023-04-03T11:07:04.256Z,15.10
2023-04-03T11:09:38.210Z,15.10
2023-04-03T11:12:13.250Z,15.10
2023-04-03T11:14:42.389Z,15.10
2023-04-03T11:17:23.566Z,15.10
2023-04-03T11:20:02.214Z,15.20
2023-04-03T11:22:34.191Z,15.20
2023-04-03T11:25:09.032Z,15.30
2023-04-03T11:27:44.751Z,15.30
2023-04-03T11:30:20.683Z,15.30
2023-04-03T11:33:22.783Z,15.20
2023-04-03T11:35:55.860Z,15.20
2023-04-03T11:38:28.663Z,15.30
2023-04-03T11:40:58.821Z,15.30
2023-04-03T11:43:30.833Z,15.40
2023-04-03T11:46:02.005Z,15.40
2023-04-03T11:48:57.396Z,15.50
2023-04-03T11:51:44.558Z,15.60
2023-04-03T11:55:00.778Z,15.60
2023-04-03T11:58:05.591Z,15.60
2023-04-03T12:01:08.788Z,15.60
2023-04-03T12:04:06.772Z,15.60
2023-04-03T12:07:15.801Z,15.60
2023-04-03T12:10:30.339Z,15.60
2023-04-03T12:13:03.477Z,15.70
2023-04-03T12:15:54.932Z,15.70
2023-04-03T12:18:57.829Z,15.70
2023-04-03T12:21:47.264Z,15.70
2023-04-03T12:24:30.629Z,15.70
2023-04-03T12:27:16.304Z,15.70
2023-04-03T12:29:52.515Z,15.70
2023-04-03T12:32:36.918Z,15.70
2023-04-03T12:35:19.205Z,15.80
2023-04-03T12:38:19.666Z,15.80
2023-04-03T12:40:57.427Z,15.70
2023-04-03T12:43:40.632Z,15.80
2023-04-03T12:46:17.351Z,15.80
2023-04-03T12:48:54.790Z,15.90
2023-04-03T12:51:30.477Z,15.80
2023-04-03T12:54:04.484Z,15.80
2023-04-03T12:56:35.319Z,15.90
2023-04-03T12:59:17.559Z,15.90
2023-04-03T13:01:46.185Z,16.00
2023-04-03T13:04:14.762Z,15.90
2023-04-03T13:06:44.783Z,15.90
2023-04-03T13:09:23.906Z,16.00
2023-04-03T13:11:58.688Z,16.00
2023-04-03T13:14:29.664Z,15.90
2023-04-03T13:16:59.163Z,15.90
2023-04-03T13:19:29.999Z,15.90
2023-04-03T13:22:03.286Z,15.90
2023-04-03T13:24:33.278Z,15.90
2023-04-03T13:27:03.167Z,15.80
2023-04-03T13:29:34.587Z,15.70
2023-04-03T13:32:04.538Z,15.70
2023-04-03T13:34:39.411Z,15.80
2023-04-03T13:37:09.023Z,15.80
2023-04-03T13:39:39.676Z,15.70
2023-04-03T13:42:23.749Z,15.70
2023-04-03T13:45:08.358Z,15.70
2023-04-03T13:47:41.876Z,15.80
2023-04-03T13:50:18.889Z,15.80
2023-04-03T13:52:49.719Z,15.70
2023-04-03T13:55:25.852Z,15.80
2023-04-03T13:57:58.664Z,15.70
2023-04-03T14:00:33.884Z,15.70
2023-04-03T14:03:02.648Z,15.70
2023-04-03T14:05:31.425Z,15.70
2023-04-03T14:07:59.967Z,15.70
2023-04-03T14:10:28.204Z,15.80
2023-04-03T14:12:57.850Z,15.70
2023-04-03T14:15:29.187Z,15.80
2023-04-03T14:17:58.148Z,15.80
2023-04-03T14:20:29.492Z,15.70
2023-04-03T14:22:58.080Z,15.70
2023-04-03T14:25:26.705Z,15.70
2023-04-03T14:27:55.993Z,15.70
2023-04-03T14:30:28.900Z,15.70
2023-04-03T14:32:58.129Z,15.70
2023-04-03T14:35:27.601Z,15.70
2023-04-03T14:37:56.681Z,15.70
2023-04-03T14:40:27.256Z,15.70
2023-04-03T14:42:58.375Z,15.70
2023-04-03T14:45:27.987Z,15.70
2023-04-03T14:47:58.362Z,15.60
2023-04-03T14:50:28.782Z,15.60
2023-04-03T14:52:59.779Z,15.50
2023-04-03T14:55:28.690Z,15.50
2023-04-03T14:57:56.927Z,15.50
2023-04-03T15:00:25.162Z,15.50
2023-04-03T15:02:54.867Z,15.50
2023-04-03T15:05:23.364Z,15.50
2023-04-03T15:07:55.387Z,15.40
2023-04-03T15:10:25.933Z,15.50
2023-04-03T15:12:54.295Z,15.50
2023-04-03T15:15:24.152Z,15.40
2023-04-03T15:17:56.233Z,15.40
2023-04-03T15:20:26.409Z,15.30
2023-04-03T15:22:57.182Z,15.30
2023-04-03T15:25:25.566Z,15.30
2023-04-03T15:27:54.729Z,15.20
2023-04-03T15:30:22.912Z,15.20
2023-04-03T15:32:52.009Z,15.20
2023-04-03T15:35:22.136Z,15.10
2023-04-03T15:37:50.514Z,15.10
2023-04-03T15:40:18.852Z,15.10
2023-04-03T15:42:46.968Z,15.00
2023-04-03T15:45:15.240Z,15.00
2023-04-03T15:47:44.697Z,15.00
2023-04-03T15:50:12.975Z,14.90
2023-04-03T15:52:42.519Z,15.00
2023-04-03T15:55:11.252Z,14.90
2023-04-03T16:00:09.773Z,14.90
2023-04-03T16:02:37.952Z,14.90
2023-04-03T16:05:06.802Z,14.80
2023-04-03T16:07:35.149Z,14.80
2023-04-03T16:10:05.221Z,14.80
2023-04-03T16:12:33.369Z,14.80
2023-04-03T16:15:01.566Z,14.70
2023-04-03T16:17:30.116Z,14.60
2023-04-03T16:19:58.614Z,14.60
2023-04-03T16:22:28.396Z,14.50
2023-04-03T16:24:56.541Z,14.50
2023-04-03T16:27:28.496Z,14.50
2023-04-03T16:29:57.035Z,14.50
2023-04-03T16:32:25.768Z,14.40
2023-04-03T16:34:54.775Z,14.30
2023-04-03T16:37:22.963Z,14.30
2023-04-03T16:39:51.220Z,14.20
2023-04-03T16:42:19.389Z,14.20
2023-04-03T16:44:48.988Z,14.20
2023-04-03T16:47:20.101Z,14.20
2023-04-03T16:49:48.788Z,14.10
2023-04-03T16:52:17.141Z,14.00
2023-04-03T16:54:45.288Z,14.00
2023-04-03T16:57:13.474Z,14.00
2023-04-03T16:59:41.621Z,14.00
2023-04-03T17:02:11.160Z,13.90
2023-04-03T17:04:39.357Z,13.90
2023-04-03T17:07:08.306Z,13.90
2023-04-03T17:09:36.709Z,13.90
2023-04-03T17:12:04.974Z,13.80
2023-04-03T17:14:33.088Z,13.70
2023-04-03T17:17:01.364Z,13.70
2023-04-03T17:19:31.481Z,13.70
2023-04-03T17:22:00.011Z,13.70
2023-04-03T17:24:28.881Z,13.70
2023-04-03T17:26:57.155Z,13.60
2023-04-03T17:29:25.284Z,13.60
2023-04-03T17:31:53.539Z,13.60
2023-04-03T17:34:21.775Z,13.50
2023-04-03T17:36:51.352Z,13.40
2023-04-03T17:39:19.530Z,13.40
2023-04-03T17:41:49.283Z,13.40
2023-04-03T17:44:17.545Z,13.40
2023-04-03T17:46:45.683Z,13.40
2023-04-03T17:49:15.199Z,13.30
2023-04-03T17:51:43.940Z,13.30
2023-04-03T17:54:13.674Z,13.30
2023-04-03T17:56:47.731Z,13.20
2023-04-03T17:59:17.090Z,13.20
2023-04-03T18:01:46.852Z,13.10
2023-04-03T18:04:16.109Z,13.10
2023-04-03T18:06:48.053Z,13.10
2023-04-03T18:09:20.521Z,13.10
2023-04-03T18:11:49.926Z,13.10
2023-04-03T18:14:20.712Z,13.00
2023-04-03T18:16:48.908Z,13.00
2023-04-03T18:19:23.497Z,12.90
2023-04-03T18:21:52.744Z,12.90
2023-04-03T18:24:23.676Z,12.90
2023-04-03T18:26:54.997Z,12.90
2023-04-03T18:29:23.788Z,12.90
2023-04-03T18:31:55.069Z,12.90
2023-04-03T18:34:23.224Z,12.80
2023-04-03T18:36:52.503Z,12.80
2023-04-03T18:39:24.028Z,12.80
2023-04-03T18:41:53.748Z,12.70
2023-04-03T18:44:25.961Z,12.60
2023-04-03T18:46:56.897Z,12.60
2023-04-03T18:49:25.565Z,12.60
2023-04-03T18:51:53.721Z,12.60
2023-04-03T18:54:23.251Z,12.50
2023-04-03T18:56:51.394Z,12.50
2023-04-03T18:59:19.661Z,12.40
2023-04-03T19:01:47.816Z,12.40
2023-04-03T19:04:16.354Z,12.30
2023-04-03T19:06:44.655Z,12.30
2023-04-03T19:09:12.850Z,12.30
2023-04-03T19:11:42.586Z,12.30
2023-04-03T19:14:16.687Z,12.30
2023-04-03T19:16:45.838Z,12.20
2023-04-03T19:19:14.074Z,12.20
2023-04-03T19:21:42.315Z,12.20
2023-04-03T19:24:11.782Z,12.20
2023-04-03T19:26:42.345Z,12.10
2023-04-03T19:29:11.057Z,12.10
2023-04-03T19:31:40.084Z,12.10
2023-04-03T19:34:08.702Z,12.10
2023-04-03T19:36:37.682Z,12.10
2023-04-03T19:39:06.398Z,12.00
2023-04-03T19:41:37.287Z,12.00
2023-04-03T19:44:07.926Z,12.00
2023-04-03T19:46:37.269Z,12.10
2023-04-03T19:49:06.116Z,12.00
2023-04-03T19:51:34.286Z,12.10
2023-04-03T19:54:02.424Z,12.10
2023-04-03T19:56:30.632Z,12.10
2023-04-03T19:58:58.752Z,12.10
2023-04-03T20:01:30.930Z,12.00
2023-04-03T20:03:59.141Z,12.00
2023-04-03T20:06:27.568Z,12.00
2023-04-03T20:08:56.014Z,12.00
2023-04-03T20:11:24.696Z,12.00
2023-04-03T20:13:53.414Z,12.00
2023-04-03T20:16:25.311Z,12.00
2023-04-03T20:18:56.321Z,12.00
2023-04-03T20:21:31.944Z,12.00
2023-04-03T20:24:00.454Z,11.90
2023-04-03T20:26:31.655Z,11.90
2023-04-03T20:29:02.705Z,11.90
2023-04-03T20:31:32.644Z,11.90
2023-04-03T20:34:03.068Z,11.90
2023-04-03T20:36:31.883Z,11.80
2023-04-03T20:39:00.160Z,11.80
2023-04-03T20:41:33.674Z,11.80
2023-04-03T20:44:01.982Z,11.80
2023-04-03T20:46:42.236Z,11.70
2023-04-03T20:49:19.620Z,11.70
2023-04-03T20:51:47.809Z,11.60
2023-04-03T20:54:16.062Z,11.60
2023-04-03T20:56:44.248Z,11.50
2023-04-03T20:59:14.131Z,11.50
2023-04-03T21:01:42.421Z,11.50
2023-04-03T21:04:17.050Z,11.40
2023-04-03T21:07:22.768Z,11.40
2023-04-03T21:10:28.462Z,11.40
2023-04-03T21:13:34.867Z,11.20
2023-04-03T21:16:02.943Z,11.10
2023-04-03T21:18:57.704Z,11.00
2023-04-03T21:21:26.839Z,10.90
2023-04-03T21:23:56.336Z,10.90
2023-04-03T21:26:27.629Z,10.90
2023-04-03T21:28:56.497Z,10.80
2023-04-03T21:31:24.996Z,10.80
2023-04-03T21:33:54.794Z,10.80
2023-04-03T21:36:23.077Z,10.80
2023-04-03T21:38:51.731Z,10.80
2023-04-03T21:41:19.846Z,10.70
2023-04-03T21:43:48.213Z,10.70
2023-04-03T21:46:16.390Z,10.70
2023-04-03T21:48:47.056Z,10.70
2023-04-03T21:51:17.248Z,10.70
2023-04-03T21:53:46.583Z,10.70
2023-04-03T21:56:14.690Z,10.70
2023-04-03T21:58:42.813Z,10.70
2023-04-03T22:01:11.839Z,10.60
2023-04-03T22:03:40.462Z,10.60
2023-04-03T22:06:09.064Z,10.60
2023-04-03T22:08:39.042Z,10.60
2023-04-03T22:11:08.777Z,10.60
2023-04-03T22:13:37.532Z,10.50
2023-04-03T22:16:06.491Z,10.50
2023-04-03T22:18:35.485Z,10.50
2023-04-03T22:21:03.955Z,10.40
2023-04-03T22:23:32.038Z,10.40
2023-04-03T22:26:02.731Z,10.40
2023-04-03T22:28:31.432Z,10.40
2023-04-03T22:31:03.161Z,10.40
2023-04-03T22:33:31.492Z,10.40
2023-04-03T22:35:59.625Z,10.40
2023-04-03T22:38:27.765Z,10.30
2023-04-03T22:40:59.858Z,10.20
2023-04-03T22:43:31.217Z,10.20
2023-04-03T22:46:01.254Z,10.10
2023-04-03T22:48:30.100Z,10.10
2023-04-03T22:50:59.966Z,10.00
2023-04-03T22:53:28.631Z,10.00
2023-04-03T22:55:57.972Z,9.90
2023-04-03T22:58:26.962Z,9.80
2023-04-03T23:00:57.855Z,9.80
2023-04-03T23:03:26.137Z,9.80
2023-04-03T23:05:56.192Z,9.70
2023-04-03T23:08:24.374Z,9.70
2023-04-03T23:10:56.583Z,9.70
2023-04-03T23:13:25.015Z,9.60
2023-04-03T23:15:58.376Z,9.60
2023-04-03T23:18:27.065Z,9.60
2023-04-03T23:20:55.296Z,9.60
2023-04-03T23:23:23.946Z,9.50
2023-04-03T23:25:55.157Z,9.50
2023-04-03T23:28:23.517Z,9.60
2023-04-03T23:31:00.776Z,9.60
2023-04-03T23:33:28.944Z,9.70
2023-04-03T23:35:58.552Z,9.70
2023-04-03T23:38:27.282Z,9.70
2023-04-03T23:40:55.887Z,9.70
2023-04-03T23:43:24.043Z,9.70
2023-04-03T23:45:52.575Z,9.80
2023-04-03T23:48:22.114Z,9.80
2023-04-03T23:50:50.296Z,9.80
2023-04-03T23:53:18.504Z,9.80
2023-04-03T23:55:46.652Z,9.80
2023-04-03T23:58:14.714Z,9.70
